Airfield :
LOGIN :

Register | Disclaimer

   EN    FR    IT 

 










Legend :    VFR   Marginal VFR   IFR   Intensive IFR   Very Intensive IFR
Visi :
Ceiling :
>= 8 km
>= 3000ft
5 to 8 km
1000 to 3000 ft
1500m to 5 km
500 to 1000 ft
800 to 1500m
200 to 500 ft
< 800m
< 200 ft
Symbols :   Thunderstorms  Fog  Heavy snow  Heavy precipitations  Wind > 20 kt
SIGMETs :     Misc.  Thunderstorms  Icing  Turbulence  Mountain Waves  Volcanic Ashes






- Airport Elevation : 1090 ft
- IATA code : CFE


LFLC - Clermont-Ferrand Auvergne

CURRENT METAR :
  • 011130Z AUTO 24010KT 9999 -RA SCT036/// BKN046/// BKN054/// ///CB 11/06 Q1012 TEMPO 27015G25KT 3000 TSRAGS

EXPIRED METARs :
  • 011100Z AUTO 23007KT 9999 FEW020/// BKN037/// BKN046/// //////TCU 11/06 Q1012 TEMPO 27015G25KT 3000 TSRAGS FEW033CB SCT035TCU BKN040
  • 011030Z AUTO 24008KT 170V310 9999 RA BKN039/// BKN047/// BKN120/// ///TCU 11/06 Q1012 TEMPO 27015G25KT 3000 TSRAGS FEW033CB SCT035TCU BKN040
  • 011000Z AUTO 27010KT 240V300 9999 BKN038/// BKN100/// ///TCU 12/05 Q1012 TEMPO 27015G25KT 3000 TSRAGS FEW033CB SCT035TCU BKN040
  • 010930Z AUTO 27008G18KT 200V310 9999 BKN036/// BKN045/// BKN056/// ///TCU 12/05 Q1012 TEMPO 3000 TSRAGS FEW033CB SCT035TCU BKN040
  • 010900Z AUTO 28011KT 250V320 9999 BKN035/// BKN049/// BKN062/// ///TCU 12/05 Q1013 TEMPO 27015G25KT SHRA FEW033CB SCT035TCU BKN040

TAF TAF LFLC
Valid from the 01 at 06:00 until the 02 at 06:00 UTC


010500Z 0106/0206 19005KT 9999 BKN030
BECMG 0106/0109 26010KT
TEMPO 0110/0118 27015G25KT SHRA FEW033CB SCT035TCU BKN040
PROB30
TEMPO 0111/0117 3000 TSRAGS
BECMG 0118/0121 32010KT
PROB30
TEMPO 0203/0206 -RA BKN014
ATIS : +33 4 73 62 74 38



MET'MAP, your aeronautical weather chart ! - Copyright ORBIFLY December 2007 - Disclaimer

ORBIFLY MET'MAP TEAM :

Programming & Development : Alexandra Zaïnal
Original concept : Baudouin d'Aumeries
Technical & hardware support : Manuel Goepfert
Assistance : Marc-Olivier Méhu




SOURCES & CREDITS :

   NOAA